Time;durP1;ratioP1;P1;durP2;ratioP2;P2;SDS_P1;SDS_P2;PMS_P1;PMS_P2;Temp;Humidity;BMP_temperature;BMP_pressure;BME280_temperature;BME280_humidity;BME280_pressure;Samples;Min_cycle;Max_cycle;Signal;HPM_P1;HPM_P2
2022/01/09 00:01:05;;;;;;;6.77;3.50;;;5.30;99.90;;;;;;5064704;28;20239;-78
2022/01/09 00:03:31;;;;;;;7.47;3.63;;;5.30;99.90;;;;;;5071239;28;20232;-78
2022/01/09 00:05:58;;;;;;;4.33;3.33;;;5.30;99.90;;;;;;5072325;28;20220;-79
2022/01/09 00:08:25;;;;;;;5.83;3.20;;;5.30;99.90;;;;;;5043063;28;20223;-79
2022/01/09 00:10:52;;;;;;;5.47;3.37;;;5.30;99.90;;;;;;5050687;28;20605;-79
2022/01/09 00:13:20;;;;;;;6.33;3.43;;;5.30;99.90;;;;;;5042321;28;20326;-78
2022/01/09 00:15:46;;;;;;;7.57;3.80;;;5.30;99.90;;;;;;5051085;28;20860;-78
2022/01/09 00:18:13;;;;;;;6.07;3.33;;;5.30;99.90;;;;;;5072722;28;20306;-78
2022/01/09 00:20:40;;;;;;;4.00;3.00;;;5.40;99.90;;;;;;5040913;28;20226;-78
2022/01/09 00:23:07;;;;;;;6.37;3.10;;;5.40;99.90;;;;;;5071618;28;20210;-80
2022/01/09 00:25:33;;;;;;;5.37;2.90;;;5.40;99.90;;;;;;5069954;28;20236;-79
2022/01/09 00:28:00;;;;;;;7.63;3.40;;;5.40;99.90;;;;;;5066921;28;20673;-78
2022/01/09 00:30:28;;;;;;;4.23;2.63;;;5.40;99.90;;;;;;5062795;28;20235;-78
2022/01/09 00:32:55;;;;;;;4.60;2.90;;;5.50;99.90;;;;;;5045736;28;20230;-78
2022/01/09 00:35:22;;;;;;;5.77;2.90;;;5.50;99.90;;;;;;5041712;28;20304;-77
2022/01/09 00:37:49;;;;;;;6.30;3.23;;;5.50;99.90;;;;;;5061519;28;20782;-78
2022/01/09 00:40:17;;;;;;;5.83;3.10;;;5.50;99.90;;;;;;5044877;28;20631;-78
2022/01/09 00:42:44;;;;;;;4.87;3.00;;;5.50;99.90;;;;;;5043411;28;20226;-78
2022/01/09 00:45:13;;;;;;;3.63;2.63;;;5.50;99.90;;;;;;5062741;28;20565;-78
2022/01/09 00:47:41;;;;;;;5.17;2.80;;;5.50;99.90;;;;;;5071922;28;20225;-77
2022/01/09 00:50:09;;;;;;;5.57;2.87;;;5.60;99.90;;;;;;5065477;28;20223;-78
2022/01/09 00:52:35;;;;;;;6.57;2.83;;;5.60;99.90;;;;;;5067413;28;20832;-83
2022/01/09 00:55:03;;;;;;;5.10;2.90;;;5.50;99.90;;;;;;5045947;28;20306;-80
2022/01/09 00:57:29;;;;;;;4.90;2.87;;;5.60;99.90;;;;;;5052848;28;20213;-79
2022/01/09 00:59:56;;;;;;;6.17;3.03;;;5.60;99.90;;;;;;5068683;28;20221;-80
2022/01/09 01:02:23;;;;;;;4.60;2.80;;;5.60;99.90;;;;;;5062419;28;20244;-79
2022/01/09 01:04:51;;;;;;;4.60;2.77;;;5.50;99.90;;;;;;5061167;28;20232;-80
2022/01/09 01:07:19;;;;;;;4.43;3.10;;;5.60;99.90;;;;;;5045301;28;20241;-80
2022/01/09 01:09:46;;;;;;;8.60;3.40;;;5.60;99.90;;;;;;5061313;28;20225;-79
2022/01/09 01:12:13;;;;;;;5.03;3.17;;;5.60;99.90;;;;;;5045178;28;20329;-80
2022/01/09 01:14:40;;;;;;;4.83;2.70;;;5.70;99.90;;;;;;5046414;28;20680;-79
2022/01/09 01:17:08;;;;;;;5.63;3.07;;;5.70;99.90;;;;;;5047199;28;20246;-79
2022/01/09 01:19:35;;;;;;;3.80;2.67;;;5.70;99.90;;;;;;5043851;28;20264;-80
2022/01/09 01:22:04;;;;;;;4.10;2.40;;;5.70;99.90;;;;;;5046951;28;20245;-79
2022/01/09 01:24:30;;;;;;;4.40;3.03;;;5.70;99.90;;;;;;5038515;28;20318;-80
2022/01/09 01:26:57;;;;;;;3.23;2.60;;;5.70;99.90;;;;;;5060289;28;20214;-80
2022/01/09 01:29:24;;;;;;;5.10;2.70;;;5.80;99.90;;;;;;5067116;28;20880;-80
2022/01/09 01:31:51;;;;;;;4.63;2.73;;;5.80;99.90;;;;;;5069178;28;20765;-80
2022/01/09 01:34:18;;;;;;;4.53;2.70;;;5.80;99.90;;;;;;5061015;28;20227;-80
2022/01/09 01:36:44;;;;;;;4.83;2.63;;;5.80;99.90;;;;;;5064138;28;20242;-79
2022/01/09 01:39:13;;;;;;;3.17;2.70;;;5.80;99.90;;;;;;5062691;28;20237;-80
2022/01/09 01:41:40;;;;;;;5.00;2.70;;;5.80;99.90;;;;;;5070396;28;20314;-80
2022/01/09 01:44:10;;;;;;;3.73;2.90;;;5.80;99.90;;;;;;5040924;28;20249;-79
2022/01/09 01:46:37;;;;;;;3.70;2.63;;;5.90;99.90;;;;;;5062430;28;20539;-79
2022/01/09 01:49:04;;;;;;;3.47;2.80;;;5.90;99.90;;;;;;5049548;28;20226;-77
2022/01/09 01:51:30;;;;;;;6.03;2.97;;;5.80;99.90;;;;;;5040703;28;20229;-78
2022/01/09 01:53:59;;;;;;;4.43;2.30;;;5.80;99.90;;;;;;5062770;28;20209;-78
2022/01/09 01:56:27;;;;;;;5.33;2.87;;;5.80;99.90;;;;;;5070532;28;20941;-77
2022/01/09 01:58:54;;;;;;;4.20;2.50;;;5.80;99.90;;;;;;5045211;28;20581;-77
2022/01/09 02:01:21;;;;;;;3.27;2.83;;;5.80;99.90;;;;;;5045669;28;20227;-77
2022/01/09 02:03:48;;;;;;;4.60;2.90;;;5.80;99.90;;;;;;5054623;28;20217;-78
2022/01/09 02:06:15;;;;;;;5.63;2.83;;;5.80;99.90;;;;;;5061780;28;20220;-77
2022/01/09 02:08:43;;;;;;;5.83;3.03;;;5.80;99.90;;;;;;5066872;28;20226;-77
2022/01/09 02:11:10;;;;;;;4.97;2.60;;;5.80;99.90;;;;;;5051276;28;20230;-77
2022/01/09 02:13:40;;;;;;;5.07;2.73;;;5.80;99.90;;;;;;5042359;28;20369;-78
2022/01/09 02:16:08;;;;;;;5.73;2.40;;;5.80;99.90;;;;;;5074823;28;20628;-78
2022/01/09 02:18:34;;;;;;;6.33;2.70;;;5.80;99.90;;;;;;5046545;28;20332;-78
2022/01/09 02:21:02;;;;;;;5.90;2.57;;;5.80;99.90;;;;;;5049424;28;20213;-77
2022/01/09 02:23:30;;;;;;;5.83;2.60;;;5.70;99.90;;;;;;5062147;28;20212;-77
2022/01/09 02:25:56;;;;;;;3.57;2.37;;;5.70;99.90;;;;;;5066382;28;20214;-77
2022/01/09 02:28:24;;;;;;;3.90;2.90;;;5.70;99.90;;;;;;5044943;28;20226;-78
2022/01/09 02:30:52;;;;;;;5.60;3.00;;;5.70;99.90;;;;;;5043988;28;20228;-78
2022/01/09 02:33:19;;;;;;;4.43;2.37;;;5.70;99.90;;;;;;5064086;28;20211;-78
2022/01/09 02:35:50;;;;;;;7.07;2.90;;;5.60;99.90;;;;;;5046503;28;20226;-78
2022/01/09 02:38:19;;;;;;;4.27;2.60;;;5.60;99.90;;;;;;5046114;28;20231;-78
2022/01/09 02:40:50;;;;;;;3.30;2.50;;;5.60;99.90;;;;;;5064127;28;20846;-78
2022/01/09 02:43:17;;;;;;;5.77;2.73;;;5.60;99.90;;;;;;5061478;28;20235;-78
2022/01/09 02:45:47;;;;;;;4.13;2.77;;;5.60;99.90;;;;;;5073670;28;20214;-79
2022/01/09 02:48:14;;;;;;;5.53;2.73;;;5.70;99.90;;;;;;5049988;28;20273;-79
2022/01/09 02:50:51;;;;;;;4.87;2.93;;;5.60;99.90;;;;;;5059545;28;20215;-79
2022/01/09 02:53:21;;;;;;;4.80;2.73;;;5.60;99.90;;;;;;5064086;28;20229;-79
2022/01/09 02:55:49;;;;;;;5.20;2.93;;;5.60;99.90;;;;;;5060115;28;20777;-79
2022/01/09 02:58:16;;;;;;;7.07;3.17;;;5.60;99.90;;;;;;5046584;28;20233;-78
2022/01/09 03:00:45;;;;;;;4.50;3.40;;;5.60;99.90;;;;;;5061267;28;20312;-78
2022/01/09 03:03:13;;;;;;;4.60;2.67;;;5.60;99.90;;;;;;5065983;28;21351;-79
2022/01/09 03:05:39;;;;;;;5.80;2.73;;;5.60;99.90;;;;;;5072666;28;20222;-79
2022/01/09 03:08:07;;;;;;;5.33;2.87;;;5.60;99.90;;;;;;5064110;28;20221;-80
2022/01/09 03:10:35;;;;;;;5.70;3.03;;;5.60;99.90;;;;;;5051548;28;20250;-79
2022/01/09 03:13:04;;;;;;;4.23;2.77;;;5.60;99.90;;;;;;5048055;28;20919;-79
2022/01/09 03:15:30;;;;;;;6.17;3.00;;;5.60;99.90;;;;;;5044764;28;20328;-79
2022/01/09 03:17:57;;;;;;;4.07;2.80;;;5.60;99.90;;;;;;5052470;28;20224;-78
2022/01/09 03:20:25;;;;;;;4.47;2.83;;;5.60;99.90;;;;;;5045775;28;20219;-79
2022/01/09 03:22:53;;;;;;;4.53;2.80;;;5.60;99.90;;;;;;5071402;28;20228;-79
2022/01/09 03:25:20;;;;;;;4.13;2.67;;;5.60;99.90;;;;;;5066393;28;20738;-78
2022/01/09 03:27:49;;;;;;;4.63;2.67;;;5.50;99.90;;;;;;5067317;28;20226;-79
2022/01/09 03:30:18;;;;;;;5.37;3.17;;;5.50;99.90;;;;;;5039622;28;20267;-79
2022/01/09 03:32:45;;;;;;;4.83;2.77;;;5.50;99.90;;;;;;5047972;28;20229;-79
2022/01/09 03:35:14;;;;;;;4.83;2.97;;;5.50;99.90;;;;;;5047376;28;20316;-79
2022/01/09 03:37:42;;;;;;;4.60;2.97;;;5.50;99.90;;;;;;5067401;28;20228;-79
2022/01/09 03:40:12;;;;;;;3.67;2.97;;;5.40;99.90;;;;;;5064467;28;20209;-79
2022/01/09 03:42:39;;;;;;;6.20;3.47;;;5.50;99.90;;;;;;5072879;28;20228;-79
2022/01/09 03:45:09;;;;;;;4.97;3.40;;;5.50;99.90;;;;;;5064680;28;20212;-79
2022/01/09 03:47:36;;;;;;;5.40;3.10;;;5.50;99.90;;;;;;5057839;28;20768;-79
2022/01/09 03:50:04;;;;;;;5.10;2.87;;;5.40;99.90;;;;;;5052998;28;20312;-79
2022/01/09 03:52:30;;;;;;;3.43;3.00;;;5.50;99.90;;;;;;5053910;28;20223;-80
2022/01/09 03:54:57;;;;;;;4.03;3.03;;;5.40;99.90;;;;;;5063132;28;20276;-80
2022/01/09 03:57:24;;;;;;;5.87;3.23;;;5.40;99.90;;;;;;5064145;28;20251;-79
2022/01/09 03:59:51;;;;;;;6.73;3.20;;;5.40;99.90;;;;;;5057059;28;20227;-79
2022/01/09 04:02:19;;;;;;;5.20;2.80;;;5.50;99.90;;;;;;5043546;28;20306;-79
2022/01/09 04:04:45;;;;;;;4.50;3.10;;;5.40;99.90;;;;;;5059304;28;20644;-80
2022/01/09 04:07:12;;;;;;;6.23;3.43;;;5.40;99.90;;;;;;5071892;28;20215;-80
2022/01/09 04:09:40;;;;;;;4.97;2.97;;;5.40;99.90;;;;;;5044551;28;20362;-79
2022/01/09 04:12:15;;;;;;;5.10;3.47;;;5.40;99.90;;;;;;5047017;28;20305;-80
2022/01/09 04:14:42;;;;;;;7.10;3.40;;;5.40;99.90;;;;;;5042618;28;20321;-79
2022/01/09 04:17:15;;;;;;;5.83;3.10;;;5.40;99.90;;;;;;5045856;28;20244;-79
2022/01/09 04:19:43;;;;;;;5.30;3.07;;;5.40;99.90;;;;;;5071167;28;20325;-79
2022/01/09 04:22:09;;;;;;;4.40;2.90;;;5.40;99.90;;;;;;5045375;28;20299;-80
2022/01/09 04:24:37;;;;;;;5.47;3.23;;;5.40;99.90;;;;;;5066251;28;20232;-81
2022/01/09 04:27:05;;;;;;;5.70;3.20;;;5.40;99.90;;;;;;5048624;28;20221;-79
2022/01/09 04:29:31;;;;;;;3.40;2.60;;;5.40;99.90;;;;;;5044108;28;20225;-78
2022/01/09 04:31:58;;;;;;;5.53;2.97;;;5.40;99.90;;;;;;5050270;28;20215;-79
2022/01/09 04:34:25;;;;;;;5.23;3.17;;;5.40;99.90;;;;;;5041255;28;20227;-79
2022/01/09 04:36:53;;;;;;;5.40;2.90;;;5.40;99.90;;;;;;5044021;28;20231;-79
2022/01/09 04:39:19;;;;;;;5.50;3.27;;;5.30;99.90;;;;;;5075276;28;20503;-80
2022/01/09 04:41:46;;;;;;;7.03;3.30;;;5.40;99.90;;;;;;5048323;28;20574;-80
2022/01/09 04:44:13;;;;;;;4.77;3.10;;;5.40;99.90;;;;;;5039119;28;20344;-80
2022/01/09 04:46:44;;;;;;;5.23;3.47;;;5.40;99.90;;;;;;5043070;28;20218;-80
2022/01/09 04:49:11;;;;;;;7.40;3.63;;;5.40;99.90;;;;;;5040502;28;20312;-80
2022/01/09 04:51:38;;;;;;;4.67;3.27;;;5.40;99.90;;;;;;5045621;28;20234;-79
2022/01/09 04:54:06;;;;;;;6.63;2.80;;;5.40;99.90;;;;;;5065552;28;20254;-79
2022/01/09 04:56:33;;;;;;;6.17;3.77;;;5.40;99.90;;;;;;5039590;28;20226;-80
2022/01/09 04:59:00;;;;;;;4.43;3.13;;;5.40;99.90;;;;;;5071988;28;20219;-80
2022/01/09 05:01:26;;;;;;;4.70;3.10;;;5.40;99.90;;;;;;5044157;28;20210;-79
2022/01/09 05:03:53;;;;;;;5.00;3.10;;;5.40;99.90;;;;;;5061523;28;20693;-80
2022/01/09 05:06:21;;;;;;;6.37;3.47;;;5.40;99.90;;;;;;5050184;28;20938;-79
2022/01/09 05:08:47;;;;;;;5.67;3.33;;;5.40;99.90;;;;;;5046113;28;20962;-79
2022/01/09 05:11:15;;;;;;;5.63;3.20;;;5.40;99.90;;;;;;5049825;28;20593;-80
2022/01/09 05:13:42;;;;;;;5.43;3.10;;;5.40;99.90;;;;;;5044729;28;20233;-80
2022/01/09 05:16:09;;;;;;;3.50;2.70;;;5.50;99.90;;;;;;5037658;28;20227;-80
2022/01/09 05:18:49;;;;;;;5.93;3.27;;;5.40;99.90;;;;;;5049116;28;20238;-80
2022/01/09 05:21:16;;;;;;;6.50;3.63;;;5.30;99.90;;;;;;5044249;28;20780;-80
2022/01/09 05:23:43;;;;;;;5.43;3.30;;;5.30;99.90;;;;;;5039883;28;20227;-80
2022/01/09 05:26:10;;;;;;;4.03;3.20;;;5.30;99.90;;;;;;5070669;28;20224;-80
2022/01/09 05:28:38;;;;;;;5.27;3.57;;;5.20;99.90;;;;;;5035647;28;20222;-81
2022/01/09 05:31:05;;;;;;;4.67;3.47;;;5.20;99.90;;;;;;5066761;28;20225;-80
2022/01/09 05:33:32;;;;;;;4.00;3.23;;;5.20;99.90;;;;;;5064753;28;20709;-81
2022/01/09 05:35:59;;;;;;;6.37;3.80;;;5.10;99.90;;;;;;5042868;28;20223;-81
2022/01/09 05:38:26;;;;;;;5.30;3.60;;;5.10;99.90;;;;;;5065126;28;20226;-80
2022/01/09 05:40:52;;;;;;;26.60;5.03;;;4.90;99.90;;;;;;5063389;28;20218;-81
2022/01/09 05:43:19;;;;;;;5.10;4.13;;;4.90;99.90;;;;;;5060104;28;20237;-80
2022/01/09 05:45:47;;;;;;;6.70;4.00;;;4.80;99.90;;;;;;5058511;28;20823;-81
2022/01/09 05:48:14;;;;;;;8.57;4.07;;;4.80;99.90;;;;;;5044926;28;20229;-81
2022/01/09 05:50:40;;;;;;;7.40;4.27;;;4.80;99.90;;;;;;5050775;28;20230;-81
2022/01/09 05:53:07;;;;;;;5.47;4.30;;;4.70;99.90;;;;;;5045091;28;20220;-81
2022/01/09 05:55:34;;;;;;;7.17;4.30;;;4.70;99.90;;;;;;5042680;28;20254;-80
2022/01/09 05:58:00;;;;;;;9.67;4.50;;;4.70;99.90;;;;;;5036161;28;20216;-80
2022/01/09 06:00:27;;;;;;;10.20;4.90;;;4.60;99.90;;;;;;5059741;28;20230;-80
2022/01/09 06:02:55;;;;;;;6.77;4.27;;;4.60;99.90;;;;;;5060658;28;20225;-81
2022/01/09 06:05:23;;;;;;;13.80;5.10;;;4.60;99.90;;;;;;5043162;28;20215;-82
2022/01/09 06:07:50;;;;;;;5.63;4.87;;;4.50;99.90;;;;;;5039695;28;20766;-82
2022/01/09 06:10:16;;;;;;;6.67;5.07;;;4.50;99.90;;;;;;5062883;28;20214;-83
2022/01/09 06:12:43;;;;;;;10.07;5.30;;;4.60;99.90;;;;;;5062519;28;20238;-84
2022/01/09 06:15:11;;;;;;;8.20;4.73;;;4.50;99.90;;;;;;5065078;28;20218;-82
2022/01/09 06:17:38;;;;;;;5.47;4.40;;;4.50;99.90;;;;;;5049420;28;20236;-83
2022/01/09 06:20:08;;;;;;;7.70;5.07;;;4.50;99.90;;;;;;5063258;28;20227;-83
2022/01/09 06:22:35;;;;;;;9.27;5.20;;;4.50;99.90;;;;;;5053533;28;20712;-84
2022/01/09 06:25:02;;;;;;;92.70;9.63;;;4.50;99.90;;;;;;5049606;28;20227;-82
2022/01/09 06:27:29;;;;;;;8.07;5.70;;;4.50;99.90;;;;;;5057632;28;20225;-83
2022/01/09 06:29:55;;;;;;;8.67;5.73;;;4.50;99.90;;;;;;5079678;28;20213;-82
2022/01/09 06:32:22;;;;;;;10.40;6.40;;;4.60;99.90;;;;;;5069984;28;20227;-82
2022/01/09 06:34:49;;;;;;;6.77;5.23;;;4.60;99.90;;;;;;5047065;28;20220;-82
2022/01/09 06:37:17;;;;;;;6.57;5.57;;;4.50;99.90;;;;;;5045270;28;20226;-83
2022/01/09 06:39:44;;;;;;;9.03;5.90;;;4.50;99.90;;;;;;5055866;28;20223;-82
2022/01/09 06:42:11;;;;;;;8.57;5.90;;;4.50;99.90;;;;;;5050121;28;20230;-88
2022/01/09 06:44:38;;;;;;;7.93;5.63;;;4.50;99.90;;;;;;5036644;28;20223;-81
2022/01/09 06:47:05;;;;;;;10.13;6.03;;;4.50;99.90;;;;;;5044193;28;21128;-85
2022/01/09 06:49:33;;;;;;;11.30;7.63;;;4.50;99.90;;;;;;5052956;28;20710;-84
2022/01/09 06:51:59;;;;;;;8.37;5.87;;;4.40;99.90;;;;;;5065918;28;20242;-84
2022/01/09 06:54:27;;;;;;;10.63;6.33;;;4.50;99.90;;;;;;5064562;28;20306;-84
2022/01/09 06:56:54;;;;;;;7.23;5.97;;;4.50;99.90;;;;;;5040095;28;20920;-83
2022/01/09 06:59:21;;;;;;;9.90;6.77;;;4.40;99.90;;;;;;5063542;28;20219;-83
2022/01/09 07:01:48;;;;;;;15.67;6.43;;;4.40;99.90;;;;;;5042401;28;20744;-84
2022/01/09 07:04:14;;;;;;;9.70;6.23;;;4.50;99.90;;;;;;5035196;28;20203;-83
2022/01/09 07:06:41;;;;;;;8.73;6.17;;;4.50;99.90;;;;;;5071927;28;20317;-83
2022/01/09 07:09:08;;;;;;;8.13;6.50;;;4.50;99.90;;;;;;5060522;28;20240;-83
2022/01/09 07:11:36;;;;;;;18.10;12.57;;;4.50;99.90;;;;;;5059502;28;20220;-84
2022/01/09 07:14:03;;;;;;;16.77;7.17;;;4.50;99.90;;;;;;5064302;28;20219;-83
2022/01/09 07:16:30;;;;;;;9.20;6.57;;;4.50;99.90;;;;;;5059993;28;20805;-83
2022/01/09 07:18:56;;;;;;;15.67;9.67;;;4.60;99.90;;;;;;5038292;28;20247;-83
2022/01/09 07:21:23;;;;;;;9.37;7.13;;;4.50;99.90;;;;;;5041370;28;20978;-83
2022/01/09 07:23:50;;;;;;;9.47;6.97;;;4.50;99.90;;;;;;5043999;28;20253;-83
2022/01/09 07:26:17;;;;;;;22.00;7.63;;;4.50;99.90;;;;;;5057662;28;20225;-85
2022/01/09 07:28:45;;;;;;;8.93;6.70;;;4.60;99.90;;;;;;5046562;28;20230;-83
2022/01/09 07:31:11;;;;;;;11.50;7.43;;;4.50;99.90;;;;;;5041545;28;20925;-83
2022/01/09 07:33:38;;;;;;;9.57;7.23;;;4.50;99.90;;;;;;5049671;28;20222;-82
2022/01/09 07:36:05;;;;;;;10.83;7.50;;;4.60;99.90;;;;;;5079682;28;20224;-83
2022/01/09 07:38:32;;;;;;;10.03;7.20;;;4.60;99.90;;;;;;5066845;28;20227;-84
2022/01/09 07:40:58;;;;;;;8.63;6.93;;;4.60;99.90;;;;;;5065845;28;20238;-82
2022/01/09 07:43:25;;;;;;;12.17;7.43;;;4.60;99.90;;;;;;5039031;28;20233;-83
2022/01/09 07:45:53;;;;;;;11.07;7.07;;;4.60;99.90;;;;;;5044459;28;20230;-83
2022/01/09 07:48:21;;;;;;;10.67;7.30;;;4.60;99.90;;;;;;5050134;28;20922;-82
2022/01/09 07:50:48;;;;;;;11.07;7.37;;;4.60;99.90;;;;;;5056447;28;20215;-82
2022/01/09 07:53:17;;;;;;;9.23;7.33;;;4.70;99.90;;;;;;5081431;28;20242;-82
2022/01/09 07:55:44;;;;;;;9.23;6.70;;;4.70;99.90;;;;;;5046043;28;20230;-83
2022/01/09 07:58:11;;;;;;;11.17;7.43;;;4.70;99.90;;;;;;5065077;28;20223;-83
2022/01/09 08:00:37;;;;;;;9.10;6.83;;;4.70;99.90;;;;;;5070229;28;20223;-82
2022/01/09 08:03:05;;;;;;;10.57;7.53;;;4.70;99.90;;;;;;5067201;28;21094;-83
2022/01/09 08:05:32;;;;;;;10.53;7.63;;;4.70;99.90;;;;;;5043793;28;20679;-85
2022/01/09 08:07:59;;;;;;;10.73;7.00;;;4.70;99.90;;;;;;5039615;28;20219;-83
2022/01/09 08:10:25;;;;;;;11.80;7.97;;;4.70;99.90;;;;;;5041911;28;20229;-83
2022/01/09 08:12:52;;;;;;;9.83;7.47;;;4.80;99.90;;;;;;5083956;28;20333;-84
2022/01/09 08:15:19;;;;;;;12.23;7.57;;;4.80;99.90;;;;;;5049550;28;20697;-84
2022/01/09 08:17:46;;;;;;;12.23;7.97;;;4.80;99.90;;;;;;5042185;28;20215;-84
2022/01/09 08:20:15;;;;;;;13.43;7.60;;;4.80;99.90;;;;;;5044134;28;20803;-82
2022/01/09 08:22:42;;;;;;;14.80;10.83;;;4.80;99.90;;;;;;5068580;28;20710;-83
2022/01/09 08:25:10;;;;;;;11.73;9.37;;;4.80;99.90;;;;;;5048004;28;20734;-84
2022/01/09 08:27:37;;;;;;;22.77;16.77;;;4.80;99.90;;;;;;5065798;28;20229;-83
2022/01/09 08:30:06;;;;;;;14.60;8.07;;;4.90;99.90;;;;;;5042995;28;20220;-84
2022/01/09 08:32:33;;;;;;;17.60;9.17;;;4.80;99.90;;;;;;5042148;28;20257;-86
2022/01/09 08:34:59;;;;;;;14.67;10.70;;;4.90;99.90;;;;;;5041388;28;20218;-83
2022/01/09 08:37:27;;;;;;;264.27;26.00;;;4.90;99.90;;;;;;5039500;28;20228;-85
2022/01/09 08:39:54;;;;;;;67.27;12.03;;;4.80;99.90;;;;;;5054495;28;20218;-85
2022/01/09 08:42:21;;;;;;;22.50;9.37;;;4.90;99.90;;;;;;5059302;28;20225;-83
2022/01/09 08:44:48;;;;;;;34.50;9.83;;;4.90;99.90;;;;;;5042057;28;20249;-84
2022/01/09 08:47:14;;;;;;;38.33;9.60;;;4.90;99.90;;;;;;5034349;28;20244;-82
2022/01/09 08:49:41;;;;;;;15.43;9.23;;;4.90;99.90;;;;;;5048305;28;20230;-80
2022/01/09 08:52:09;;;;;;;19.30;9.47;;;4.90;99.90;;;;;;5042874;28;20219;-80
2022/01/09 08:54:37;;;;;;;19.07;9.60;;;4.90;99.90;;;;;;5047675;28;20220;-81
2022/01/09 08:57:05;;;;;;;12.20;8.20;;;5.00;99.90;;;;;;5057771;28;20362;-82
2022/01/09 08:59:31;;;;;;;10.50;8.57;;;5.00;99.90;;;;;;5037706;28;20229;-82
2022/01/09 09:01:58;;;;;;;14.33;8.53;;;5.00;99.90;;;;;;5042921;28;20241;-83
2022/01/09 09:04:25;;;;;;;9.83;8.07;;;5.00;99.90;;;;;;5034303;28;20748;-81
2022/01/09 09:06:52;;;;;;;14.10;8.30;;;5.10;99.90;;;;;;5075336;28;20603;-81
2022/01/09 09:09:19;;;;;;;22.30;9.33;;;5.10;99.90;;;;;;5047939;28;20223;-81
2022/01/09 09:11:48;;;;;;;11.73;8.43;;;5.10;99.90;;;;;;5046388;28;20735;-81
2022/01/09 09:14:15;;;;;;;11.03;8.77;;;5.10;99.90;;;;;;5038619;28;20221;-81
2022/01/09 09:16:41;;;;;;;16.40;9.23;;;5.10;99.90;;;;;;5059968;28;20316;-80
2022/01/09 09:19:08;;;;;;;11.40;8.50;;;5.20;99.90;;;;;;5058047;28;20249;-81
2022/01/09 09:21:35;;;;;;;12.27;9.23;;;5.20;99.90;;;;;;5056528;28;20242;-80
2022/01/09 09:24:02;;;;;;;15.83;8.57;;;5.20;99.90;;;;;;5058459;28;20215;-80
2022/01/09 09:26:30;;;;;;;10.60;9.03;;;5.20;99.90;;;;;;5038172;28;20681;-81
2022/01/09 09:28:58;;;;;;;13.60;8.90;;;5.20;99.90;;;;;;5063325;28;20469;-81
2022/01/09 09:31:25;;;;;;;12.20;9.27;;;5.20;99.90;;;;;;5059365;28;20690;-81
2022/01/09 09:33:52;;;;;;;13.27;9.43;;;5.30;99.90;;;;;;5062624;28;20219;-82
2022/01/09 09:36:21;;;;;;;10.43;9.00;;;5.30;99.90;;;;;;5034773;28;20245;-83
2022/01/09 09:38:48;;;;;;;10.17;8.57;;;5.30;99.90;;;;;;5047482;28;20234;-82
2022/01/09 09:41:15;;;;;;;12.03;9.30;;;5.30;99.90;;;;;;5037987;28;20224;-81
2022/01/09 09:43:41;;;;;;;15.63;11.83;;;5.30;99.90;;;;;;5033159;28;20228;-81
2022/01/09 09:46:09;;;;;;;15.23;9.23;;;5.30;99.90;;;;;;5033926;28;20300;-81
2022/01/09 09:48:36;;;;;;;10.90;8.17;;;5.30;99.90;;;;;;5058352;28;20237;-80
2022/01/09 09:51:03;;;;;;;14.07;10.00;;;5.40;99.90;;;;;;5043030;28;20222;-84
2022/01/09 09:53:30;;;;;;;11.50;8.73;;;5.40;99.90;;;;;;5036003;28;20218;-80
2022/01/09 09:55:56;;;;;;;12.07;8.53;;;5.40;99.90;;;;;;5038157;28;20228;-81
2022/01/09 09:58:23;;;;;;;10.60;8.30;;;5.40;99.90;;;;;;5048438;28;20222;-82
2022/01/09 10:00:53;;;;;;;9.03;8.00;;;5.50;99.90;;;;;;5057042;28;20240;-81
2022/01/09 10:03:29;;;;;;;9.23;7.33;;;5.50;99.90;;;;;;5035059;28;20225;-81
2022/01/09 10:05:57;;;;;;;11.90;7.90;;;5.50;99.90;;;;;;5055375;28;20219;-81
2022/01/09 10:08:35;;;;;;;11.77;7.77;;;5.50;99.90;;;;;;5061192;28;20227;-83
2022/01/09 10:11:12;;;;;;;16.10;8.37;;;5.50;99.90;;;;;;5038968;28;20215;-80
2022/01/09 10:13:39;;;;;;;8.83;7.70;;;5.60;99.90;;;;;;5038772;28;20237;-82
2022/01/09 10:16:06;;;;;;;8.13;7.00;;;5.60;99.90;;;;;;5047186;28;21064;-81
2022/01/09 10:18:41;;;;;;;9.77;7.37;;;5.60;99.90;;;;;;5037539;28;20744;-82
2022/01/09 10:21:10;;;;;;;12.50;7.73;;;5.50;99.90;;;;;;5040534;28;20216;-80
2022/01/09 10:23:57;;;;;;;19.13;8.33;;;5.50;99.90;;;;;;5063598;28;20692;-81
2022/01/09 10:26:25;;;;;;;9.67;7.33;;;5.50;99.90;;;;;;5059615;28;20739;-81
2022/01/09 10:28:52;;;;;;;11.13;7.37;;;5.60;99.90;;;;;;5040227;28;20219;-80
2022/01/09 10:31:19;;;;;;;7.40;6.57;;;5.60;99.90;;;;;;5061384;28;20813;-83
2022/01/09 10:34:02;;;;;;;8.90;7.17;;;5.60;99.90;;;;;;5043127;28;21719;-82
2022/01/09 10:36:40;;;;;;;8.73;7.43;;;5.60;99.90;;;;;;5038885;28;20249;-82
2022/01/09 10:39:09;;;;;;;8.30;6.33;;;5.60;99.90;;;;;;5040264;28;20575;-81
2022/01/09 10:41:47;;;;;;;47.60;9.60;;;5.60;99.90;;;;;;5065081;28;20665;-81
2022/01/09 10:44:18;;;;;;;8.13;6.43;;;5.60;99.90;;;;;;5042332;28;20233;-82
2022/01/09 10:46:54;;;;;;;7.70;6.50;;;5.60;99.90;;;;;;5061580;28;20554;-81
2022/01/09 10:49:23;;;;;;;11.90;7.23;;;5.70;99.90;;;;;;5035299;28;20230;-80
2022/01/09 10:51:50;;;;;;;10.20;6.33;;;5.60;99.90;;;;;;5061066;28;20218;-82
2022/01/09 10:54:30;;;;;;;9.20;6.80;;;5.60;99.90;;;;;;5045194;28;20250;-81
2022/01/09 10:57:11;;;;;;;9.73;7.00;;;5.60;99.90;;;;;;5047958;28;20215;-80
2022/01/09 10:59:38;;;;;;;14.50;7.00;;;5.60;99.90;;;;;;5046042;28;20223;-81
2022/01/09 11:02:06;;;;;;;9.63;6.57;;;5.60;99.90;;;;;;5048530;28;20675;-80
2022/01/09 11:04:34;;;;;;;12.23;6.80;;;5.60;99.90;;;;;;5048235;28;20234;-80
2022/01/09 11:07:01;;;;;;;6.67;5.87;;;5.60;99.90;;;;;;5045957;28;20228;-80
2022/01/09 11:09:30;;;;;;;12.07;6.47;;;5.60;99.90;;;;;;5049183;28;20221;-80
2022/01/09 11:11:57;;;;;;;10.00;6.10;;;5.60;99.90;;;;;;5065099;28;20222;-80
2022/01/09 11:14:26;;;;;;;8.67;6.23;;;5.60;99.90;;;;;;5047527;28;20872;-80
2022/01/09 11:16:54;;;;;;;14.23;6.90;;;5.60;99.90;;;;;;5067694;28;20312;-80
2022/01/09 11:19:23;;;;;;;12.33;6.93;;;5.60;99.90;;;;;;5067190;28;20221;-81
2022/01/09 11:21:55;;;;;;;16.10;6.97;;;5.60;99.90;;;;;;5067161;28;20220;-80
2022/01/09 11:24:43;;;;;;;13.90;6.80;;;5.70;99.90;;;;;;5046857;28;20223;-81
2022/01/09 11:27:18;;;;;;;7.23;6.20;;;5.70;99.90;;;;;;5039800;28;20864;-80
2022/01/09 11:29:54;;;;;;;10.67;6.30;;;5.70;99.90;;;;;;5055978;28;20218;-81
2022/01/09 11:32:32;;;;;;;10.23;6.37;;;5.80;99.90;;;;;;5071820;28;20626;-81
2022/01/09 11:35:10;;;;;;;7.67;5.87;;;5.80;99.90;;;;;;5064876;28;20221;-81
2022/01/09 11:37:56;;;;;;;8.03;6.63;;;5.80;99.90;;;;;;5069676;28;20232;-82
2022/01/09 11:40:24;;;;;;;57.83;9.40;;;5.80;99.90;;;;;;5039933;28;20210;-83
2022/01/09 11:43:06;;;;;;;27.23;7.50;;;5.80;99.90;;;;;;5059623;28;20334;-84
2022/01/09 11:45:45;;;;;;;11.50;7.93;;;5.90;99.90;;;;;;5036852;28;20226;-81
2022/01/09 11:48:14;;;;;;;37.60;8.80;;;5.90;99.90;;;;;;5036319;28;20639;-81
2022/01/09 11:51:13;;;;;;;13.30;7.50;;;5.90;99.90;;;;;;5045939;28;20223;-82
2022/01/09 11:53:59;;;;;;;9.57;6.73;;;5.90;99.90;;;;;;5060262;28;20320;-81
2022/01/09 11:57:06;;;;;;;9.67;6.27;;;6.00;99.90;;;;;;5065693;28;20218;-81
2022/01/09 11:59:35;;;;;;;8.97;6.57;;;6.00;99.90;;;;;;5048858;28;20232;-81
2022/01/09 12:02:04;;;;;;;12.33;6.90;;;6.00;99.90;;;;;;5062362;28;20238;-83
2022/01/09 12:04:54;;;;;;;9.83;6.57;;;6.10;99.90;;;;;;5064643;28;20305;-82
2022/01/09 12:08:05;;;;;;;9.83;6.40;;;6.10;99.90;;;;;;5059807;28;20222;-81
2022/01/09 12:10:56;;;;;;;7.73;6.30;;;6.10;99.90;;;;;;5038539;28;20287;-84
2022/01/09 12:13:42;;;;;;;10.20;5.77;;;6.10;99.90;;;;;;5064046;28;20697;-81
2022/01/09 12:16:11;;;;;;;40.33;7.73;;;6.10;99.90;;;;;;5059290;28;20569;-81
2022/01/09 12:18:43;;;;;;;26.67;7.00;;;6.20;99.90;;;;;;5067259;28;20771;-81
2022/01/09 12:21:11;;;;;;;6.93;5.83;;;6.20;99.90;;;;;;5063353;28;20244;-80
2022/01/09 12:23:37;;;;;;;33.83;8.07;;;6.20;99.90;;;;;;5063620;28;20714;-81
2022/01/09 12:26:06;;;;;;;8.57;6.87;;;6.20;99.90;;;;;;5039401;28;20226;-81
2022/01/09 12:28:43;;;;;;;8.97;5.83;;;6.30;99.90;;;;;;5042592;28;20216;-82
2022/01/09 12:31:22;;;;;;;10.07;6.20;;;6.30;99.90;;;;;;5039911;28;20219;-81
2022/01/09 12:33:52;;;;;;;8.57;6.37;;;6.40;99.90;;;;;;5054238;28;20223;-82
2022/01/09 12:36:30;;;;;;;37.77;12.30;;;6.40;99.90;;;;;;5062368;28;20234;-82
2022/01/09 12:38:59;;;;;;;10.57;6.80;;;6.40;99.90;;;;;;5042444;28;20223;-81
2022/01/09 12:41:36;;;;;;;12.17;7.10;;;6.40;99.90;;;;;;5041557;28;20890;-81
2022/01/09 12:44:08;;;;;;;136.70;16.17;;;6.40;99.90;;;;;;5047352;28;20231;-81
2022/01/09 12:46:41;;;;;;;18.13;16.23;;;6.40;99.90;;;;;;5044226;28;20219;-81
2022/01/09 12:49:09;;;;;;;86.37;14.00;;;6.40;99.90;;;;;;5070517;28;20216;-83
2022/01/09 12:51:39;;;;;;;10.87;9.53;;;6.40;99.90;;;;;;5046107;28;20256;-82
2022/01/09 12:54:08;;;;;;;9.23;7.47;;;6.50;99.90;;;;;;5054961;28;20223;-81
2022/01/09 12:56:37;;;;;;;49.40;8.90;;;6.60;99.90;;;;;;5058595;28;20230;-81
2022/01/09 12:59:07;;;;;;;8.87;6.70;;;6.60;99.90;;;;;;5066396;28;20341;-83
2022/01/09 13:01:38;;;;;;;7.67;6.67;;;6.70;99.90;;;;;;5055954;28;20281;-81